Have a Safe July 4th! 

Flight Track Log - Related Links

Times and Time Zones

All times are in EDT time to prevent confusion due to time zone crossing. See the CSH9556 flight status page for this flight to view local times or setup timezone preferences in your user account.

Time Position Orientation Groundspeed Altitude Reporting Facility
EDT Latitude Longitude Course Direction KTS MPH feet Rate Location/Type
Thu 11:40:00 AM 25.2516 118.4496 22° Northeast  Level Estimated
Thu 11:41:00 AM 25.3302 118.4856 22° Northeast  Level Estimated
Thu 11:42:00 AM 25.4087 118.5216 23° Northeast  Level Estimated
Thu 11:43:00 AM 25.4873 118.5577 23° Northeast  Level Estimated
Thu 11:44:00 AM 25.5658 118.5938 23° Northeast  Level Estimated
Thu 11:45:00 AM 25.6444 118.6300 23° Northeast  Level Estimated
Thu 11:46:00 AM 25.7229 118.6662 23° Northeast  Level Estimated
Thu 11:47:00 AM 25.8014 118.7025 23° Northeast  Level Estimated
Thu 11:48:00 AM 25.8799 118.7388 23° Northeast  Level Estimated
Thu 11:49:00 AM 25.9584 118.7752 23° Northeast  Level Estimated
Thu 11:50:00 AM 26.0369 118.8116 23° Northeast  Level Estimated
Thu 11:51:00 AM 26.1154 118.8481 23° Northeast  Level Estimated
Thu 11:52:00 AM 26.1939 118.8846 23° Northeast  Level Estimated
Thu 11:53:00 AM 26.2724 118.9212 23° Northeast  Level Estimated
Thu 11:54:00 AM 26.3508 118.9578 23° Northeast  Level Estimated
Thu 11:55:00 AM 26.4293 118.9944 23° Northeast  Level Estimated
Thu 11:56:00 AM 26.5077 119.0312 23° Northeast  Level Estimated
Thu 11:57:00 AM 26.5861 119.0679 23° Northeast  Level Estimated
Thu 11:58:00 AM 26.6645 119.1047 23° Northeast  Level Estimated
Thu 11:59:00 AM 26.7429 119.1416 23° Northeast  Level Estimated
Thu 12:00:00 PM 26.8213 119.1785 23° Northeast  Level Estimated
Thu 12:01:00 PM 26.8997 119.2155 23° Northeast  Level Estimated
Thu 12:02:00 PM 26.9781 119.2525 23° Northeast  Level Estimated
Thu 12:03:00 PM 27.0565 119.2896 23° Northeast  Level Estimated
Thu 12:04:00 PM 27.1348 119.3267 23° Northeast  Level Estimated
Thu 12:05:00 PM 27.2132 119.3639 23° Northeast  Level Estimated
Thu 12:06:00 PM 27.2915 119.4011 23° Northeast  Level Estimated
Thu 12:07:00 PM 27.3699 119.4384 23° Northeast  Level Estimated
Thu 12:08:00 PM 27.4482 119.4757 23° Northeast  Level Estimated
Thu 12:09:00 PM 27.5265 119.5131 23° Northeast  Level Estimated
Thu 12:10:00 PM 27.6048 119.5505 23° Northeast  Level Estimated
Thu 12:11:00 PM 27.6831 119.5880 23° Northeast  Level Estimated
Thu 12:12:00 PM 27.7614 119.6256 23° Northeast  Level Estimated
Thu 12:13:00 PM 27.8396 119.6632 23° Northeast  Level Estimated
Thu 12:14:00 PM 27.9179 119.7008 23° Northeast  Level Estimated
Thu 12:15:00 PM 27.9962 119.7385 23° Northeast  Level Estimated
Thu 12:16:00 PM 28.0744 119.7763 23° Northeast  Level Estimated
Thu 12:17:00 PM 28.1526 119.8141 23° Northeast  Level Estimated
Thu 12:18:00 PM 28.2309 119.8520 23° Northeast  Level Estimated
Thu 12:19:00 PM 28.3091 119.8899 23° Northeast  Level Estimated
Thu 12:20:00 PM 28.3873 119.9279 23° Northeast  Level Estimated
Thu 12:21:00 PM 28.4655 119.9660 23° Northeast  Level Estimated
Thu 12:22:00 PM 28.5436 120.0041 23° Northeast  Level Estimated
Thu 12:23:00 PM 28.6218 120.0422 23° Northeast  Level Estimated
Thu 12:24:00 PM 28.6999 120.0804 23° Northeast  Level Estimated
Thu 12:25:00 PM 28.7781 120.1187 23° Northeast  Level Estimated
Thu 12:26:00 PM 28.8562 120.1570 23° Northeast  Level Estimated
Thu 12:27:00 PM 28.9344 120.1954 23° Northeast  Level Estimated
Thu 12:28:00 PM 29.0125 120.2338 23° Northeast  Level Estimated
Thu 12:29:00 PM 29.0906 120.2723 23° Northeast  Level Estimated
Thu 12:30:00 PM 29.1687 120.3109 23° Northeast  Level Estimated
Thu 12:31:00 PM 29.2467 120.3495 23° Northeast  Level Estimated
Thu 12:32:00 PM 29.3248 120.3882 23° Northeast  Level Estimated
Thu 12:33:00 PM 29.4029 120.4269 23° Northeast  Level Estimated
Thu 12:34:00 PM 29.4809 120.4657 23° Northeast  Level Estimated
Thu 12:35:00 PM 29.5590 120.5046 23° Northeast  Level Estimated
Thu 12:36:00 PM 29.6370 120.5435 23° Northeast  Level Estimated
Thu 12:37:00 PM 29.7150 120.5825 23° Northeast  Level Estimated
Thu 12:38:00 PM 29.7930 120.6215 23° Northeast  Level Estimated
Thu 12:39:00 PM 29.8710 120.6606 23° Northeast  Level Estimated
Thu 12:40:00 PM 29.9490 120.6998 24° Northeast  Level Estimated
Thu 12:41:00 PM 30.0269 120.7390 24° Northeast  Level Estimated
Thu 12:42:00 PM 30.1049 120.7783 24° Northeast  Level Estimated
Thu 12:43:00 PM 30.1828 120.8176 24° Northeast  Level Estimated
Thu 12:44:00 PM 30.2608 120.8570 24° Northeast  Level Estimated
Thu 12:45:00 PM 30.3387 120.8965 24° Northeast  Level Estimated
Thu 12:46:00 PM 30.4166 120.9360 24° Northeast  Level Estimated
Thu 12:47:00 PM 30.4945 120.9756 24° Northeast  Level Estimated
Thu 12:48:00 PM 30.5724 121.0153 24° Northeast  Level Estimated
Thu 12:49:00 PM 30.6502 121.0550 24° Northeast  Level Estimated
Thu 12:50:00 PM 30.7281 121.0948 24° Northeast  Level Estimated
Thu 12:51:00 PM 30.8059 121.1346 24° Northeast  Level Estimated
Thu 12:52:00 PM 30.8838 121.1745 24° Northeast  Level Estimated
Thu 12:53:00 PM 30.9616 121.2145 24° Northeast  Level Estimated
Thu 12:54:00 PM 31.0394 121.2545 24° Northeast  Level Estimated
Thu 12:55:00 PM 31.1172 121.2947 24° Northeast  Level Estimated
Thu 12:56:00 PM 31.1950 121.3348 24° Northeast  Level Estimated
Thu 12:57:00 PM 31.1979 121.3363 24° Northeast  Level Estimated
Thu 12:58:00 PM 31.1979 121.3363 North  Level Estimated
Thu 12:59:00 PM 31.1979 121.3363 North  Level Estimated

Login

Don't have an account? Register now (free) for customized features, flight alerts, and more!